Terminal Aerodrome Forecast
Issued by NWS

Home | Current Version | Previous Version | Text Only | Print | Product List | Glossary On
Versions: 1 2 3 4 5 6 7 8 9 10 11 12 13 14 15
000
FTUS45 KPSR 311700
TAFBLH
TAF
KBLH 311722Z 3118/0118 35008KT P6SM VCSH BKN080
     FM312100 35012G18KT P6SM SCT080
     FM010300 01006KT P6SM FEW080=

USA.gov is the U.S. government's official web portal to all federal, state and local government web resources and services.